createdAt,value
2019-04-07T00:01:55.998Z,20.70
2019-04-07T00:04:56.654Z,18.57
2019-04-07T00:07:29.715Z,19.90
2019-04-07T00:10:09.880Z,20.50
2019-04-07T00:12:44.113Z,20.77
2019-04-07T00:15:16.837Z,20.13
2019-04-07T00:17:48.231Z,21.70
2019-04-07T00:20:20.860Z,20.47
2019-04-07T00:22:52.476Z,19.93
2019-04-07T00:25:26.860Z,19.67
2019-04-07T00:27:59.669Z,20.27
2019-04-07T00:30:30.823Z,20.97
2019-04-07T00:33:22.019Z,20.13
2019-04-07T00:36:07.354Z,21.37
2019-04-07T00:38:38.415Z,21.90
2019-04-07T00:41:24.855Z,19.90
2019-04-07T00:44:00.304Z,20.83
2019-04-07T00:46:31.298Z,21.97
2019-04-07T00:49:04.006Z,21.43
2019-04-07T00:51:36.022Z,21.97
2019-04-07T00:54:07.604Z,21.07
2019-04-07T00:56:39.109Z,21.17
2019-04-07T00:59:09.965Z,23.33
2019-04-07T01:01:41.402Z,21.27
2019-04-07T01:04:12.298Z,22.63
2019-04-07T01:06:43.703Z,21.03
2019-04-07T01:09:14.652Z,23.67
2019-04-07T01:11:47.462Z,22.33
2019-04-07T01:14:19.824Z,22.87
2019-04-07T01:16:50.778Z,23.73
2019-04-07T01:19:24.441Z,22.67
2019-04-07T01:21:55.818Z,21.97
2019-04-07T01:24:26.925Z,22.97
2019-04-07T01:27:00.632Z,23.20
2019-04-07T01:29:32.188Z,23.43
2019-04-07T01:32:07.175Z,25.47
2019-04-07T01:34:37.970Z,22.67
2019-04-07T01:37:30.870Z,25.97
2019-04-07T01:40:02.404Z,25.03
2019-04-07T01:42:39.803Z,25.73
2019-04-07T01:46:15.504Z,26.80
2019-04-07T01:49:32.182Z,25.60
2019-04-07T01:52:23.694Z,24.80
2019-04-07T01:55:09.207Z,25.77
2019-04-07T01:58:07.871Z,30.50
2019-04-07T02:00:56.583Z,29.37
2019-04-07T02:07:49.032Z,27.87
2019-04-07T02:10:32.933Z,29.77
2019-04-07T02:13:16.574Z,28.67
2019-04-07T02:16:13.559Z,28.83
2019-04-07T02:19:03.586Z,27.90
2019-04-07T02:21:44.956Z,28.67
2019-04-07T02:24:39.887Z,26.53
2019-04-07T02:27:59.937Z,28.40
2019-04-07T02:31:01.040Z,28.07
2019-04-07T02:33:50.035Z,27.73
2019-04-07T02:36:35.766Z,27.80
2019-04-07T02:39:32.733Z,29.47
2019-04-07T02:42:17.069Z,27.57
2019-04-07T02:45:21.965Z,24.83
2019-04-07T02:48:10.826Z,25.10
2019-04-07T02:51:15.315Z,23.40
2019-04-07T02:54:09.406Z,25.23
2019-04-07T02:56:56.053Z,24.50
2019-04-07T03:00:13.940Z,24.60
2019-04-07T03:03:02.300Z,23.83
2019-04-07T03:05:45.598Z,24.33
2019-04-07T03:08:41.189Z,25.03
2019-04-07T03:11:37.454Z,25.37
2019-04-07T03:14:19.712Z,24.50
2019-04-07T03:17:16.416Z,24.80
2019-04-07T03:20:07.078Z,25.83
2019-04-07T03:22:57.000Z,26.80
2019-04-07T03:26:16.603Z,28.70
2019-04-07T03:29:05.329Z,29.20
2019-04-07T03:31:49.130Z,28.93
2019-04-07T03:34:38.744Z,26.23
2019-04-07T03:37:36.034Z,25.70
2019-04-07T03:40:13.872Z,26.93
2019-04-07T03:42:55.730Z,26.07
2019-04-07T03:45:32.930Z,25.63
2019-04-07T03:48:23.037Z,26.17
2019-04-07T03:51:19.069Z,26.10
2019-04-07T03:54:07.601Z,27.63
2019-04-07T03:56:56.823Z,28.33
2019-04-07T03:59:52.538Z,29.50
2019-04-07T04:06:07.278Z,27.80
2019-04-07T04:08:52.911Z,28.53
2019-04-07T04:11:37.713Z,27.53
2019-04-07T04:14:31.541Z,27.63
2019-04-07T04:17:04.354Z,26.63
2019-04-07T04:19:51.836Z,25.20
2019-04-07T04:22:26.702Z,25.37
2019-04-07T04:25:02.917Z,24.83
2019-04-07T04:27:35.032Z,23.13
2019-04-07T04:30:07.129Z,23.93
2019-04-07T04:32:39.344Z,26.03
2019-04-07T04:35:10.763Z,26.27
2019-04-07T04:37:48.312Z,25.47
2019-04-07T04:40:16.067Z,25.03
2019-04-07T04:42:48.454Z,24.27
2019-04-07T04:45:19.345Z,24.10
2019-04-07T04:47:50.433Z,24.50
2019-04-07T04:50:21.436Z,24.33
2019-04-07T04:52:52.825Z,23.77
2019-04-07T04:55:24.292Z,23.77
2019-04-07T04:58:09.998Z,25.10
2019-04-07T05:00:42.855Z,27.43
2019-04-07T05:03:15.995Z,24.93
2019-04-07T05:05:46.959Z,23.70
2019-04-07T05:08:17.729Z,23.23
2019-04-07T05:10:48.584Z,24.53
2019-04-07T05:13:19.849Z,23.07
2019-04-07T05:15:51.106Z,24.10
2019-04-07T05:18:22.264Z,22.80
2019-04-07T05:20:54.251Z,23.53
2019-04-07T05:23:25.186Z,22.63
2019-04-07T05:25:56.178Z,22.83
2019-04-07T05:28:36.816Z,21.77
2019-04-07T05:31:05.751Z,22.63
2019-04-07T05:33:36.769Z,22.83
2019-04-07T05:36:08.228Z,23.37
2019-04-07T05:38:39.588Z,22.77
2019-04-07T05:41:15.674Z,23.07
2019-04-07T05:43:47.023Z,24.20
2019-04-07T05:46:17.805Z,23.67
2019-04-07T05:48:50.497Z,22.87
2019-04-07T05:52:35.422Z,23.33
2019-04-07T05:55:07.865Z,22.80
2019-04-07T05:57:39.929Z,23.00
2019-04-07T06:00:17.259Z,22.93
2019-04-07T06:02:48.885Z,22.57
2019-04-07T06:05:20.091Z,21.43
2019-04-07T06:07:51.563Z,22.10
2019-04-07T06:10:27.640Z,23.63
2019-04-07T06:12:56.525Z,23.23
2019-04-07T06:15:27.614Z,22.97
2019-04-07T06:18:00.621Z,22.67
2019-04-07T06:21:24.552Z,22.57
2019-04-07T06:23:58.572Z,22.43
2019-04-07T06:26:27.865Z,21.53
2019-04-07T06:28:59.835Z,21.73
2019-04-07T06:31:32.228Z,22.87
2019-04-07T06:34:03.232Z,22.70
2019-04-07T06:36:34.144Z,23.80
2019-04-07T06:39:07.467Z,22.77
2019-04-07T06:41:39.057Z,22.03
2019-04-07T06:44:13.749Z,22.00
2019-04-07T06:47:07.749Z,21.97
2019-04-07T06:49:53.124Z,21.83
2019-04-07T06:53:34.934Z,20.30
2019-04-07T06:56:25.996Z,21.53
2019-04-07T07:00:03.291Z,20.57
2019-04-07T07:03:13.716Z,20.57
2019-04-07T07:06:03.620Z,18.23
2019-04-07T07:09:19.180Z,22.80
2019-04-07T07:12:38.813Z,22.43
2019-04-07T07:15:36.456Z,22.00
2019-04-07T07:21:41.417Z,22.77
2019-04-07T07:24:15.706Z,20.70
2019-04-07T07:26:52.962Z,22.20
2019-04-07T07:32:16.953Z,21.87
2019-04-07T07:34:58.716Z,21.47
2019-04-07T07:37:31.753Z,21.13
2019-04-07T07:40:18.362Z,21.17
2019-04-07T07:42:50.717Z,20.83
2019-04-07T07:45:22.937Z,21.77
2019-04-07T07:47:54.865Z,21.20
2019-04-07T07:50:26.610Z,22.03
2019-04-07T07:55:38.694Z,21.53
2019-04-07T07:58:13.838Z,20.73
2019-04-07T08:00:50.690Z,20.60
2019-04-07T08:03:24.156Z,19.27
2019-04-07T08:06:04.793Z,20.47
2019-04-07T08:09:09.904Z,19.73
2019-04-07T08:11:49.023Z,17.83
2019-04-07T08:14:42.577Z,18.73
2019-04-07T08:17:13.724Z,19.00
2019-04-07T08:19:45.404Z,14.97
2019-04-07T08:22:27.525Z,15.87
2019-04-07T08:24:51.982Z,13.87
2019-04-07T08:27:24.524Z,15.83
2019-04-07T08:29:56.060Z,14.37
2019-04-07T08:32:30.773Z,14.10
2019-04-07T08:35:02.674Z,14.23
2019-04-07T08:37:31.880Z,14.33
2019-04-07T08:40:07.078Z,14.80
2019-04-07T08:42:35.812Z,13.80
2019-04-07T08:45:08.345Z,14.43
2019-04-07T08:47:39.194Z,14.03
2019-04-07T08:50:10.505Z,13.23
2019-04-07T08:52:43.807Z,13.00
2019-04-07T08:55:15.637Z,13.63
2019-04-07T08:57:46.912Z,14.33
2019-04-07T09:00:21.621Z,14.13
2019-04-07T09:03:01.828Z,13.93
2019-04-07T09:05:30.991Z,14.60
2019-04-07T09:08:03.515Z,15.27
2019-04-07T09:10:54.770Z,15.20
2019-04-07T09:13:25.535Z,15.07
2019-04-07T09:19:29.946Z,16.13
2019-04-07T09:22:23.207Z,17.30
2019-04-07T09:25:15.550Z,16.77
2019-04-07T09:27:55.809Z,17.03
2019-04-07T09:30:40.954Z,16.43
2019-04-07T09:33:39.632Z,17.10
2019-04-07T09:36:21.246Z,18.80
2019-04-07T09:39:09.811Z,18.00
2019-04-07T09:41:55.214Z,17.73
2019-04-07T09:45:03.281Z,19.07
2019-04-07T09:48:00.639Z,16.30
2019-04-07T09:50:55.465Z,19.80
2019-04-07T09:53:48.808Z,20.33
2019-04-07T09:56:36.459Z,19.60
2019-04-07T09:59:39.649Z,19.37
2019-04-07T10:02:34.149Z,18.63
2019-04-07T10:06:00.815Z,18.93
2019-04-07T10:08:52.451Z,16.90
2019-04-07T10:11:42.034Z,17.57
2019-04-07T10:14:37.586Z,17.63
2019-04-07T10:17:21.143Z,16.83
2019-04-07T10:20:23.124Z,17.37
2019-04-07T10:23:07.165Z,16.57
2019-04-07T10:26:05.104Z,17.63
2019-04-07T10:28:44.207Z,14.67
2019-04-07T10:31:40.929Z,17.03
2019-04-07T10:34:33.266Z,15.47
2019-04-07T10:37:23.173Z,12.40
2019-04-07T10:40:18.886Z,13.93
2019-04-07T10:43:08.540Z,12.70
2019-04-07T10:45:44.900Z,14.67
2019-04-07T10:48:26.973Z,14.90
2019-04-07T10:51:19.742Z,14.47
2019-04-07T10:54:11.519Z,13.40
2019-04-07T10:57:02.124Z,13.10
2019-04-07T10:59:53.261Z,13.27
2019-04-07T11:02:52.793Z,12.53
2019-04-07T11:05:41.046Z,12.33
2019-04-07T11:08:40.021Z,12.80
2019-04-07T11:11:27.240Z,11.23
2019-04-07T11:14:07.977Z,11.70
2019-04-07T11:16:54.983Z,11.10
2019-04-07T11:19:44.457Z,10.57
2019-04-07T11:22:36.877Z,10.17
2019-04-07T11:25:27.370Z,9.60
2019-04-07T11:28:16.583Z,10.90
2019-04-07T11:31:06.357Z,12.43
2019-04-07T11:33:52.541Z,10.50
2019-04-07T11:36:40.965Z,9.57
2019-04-07T11:39:36.247Z,10.47
2019-04-07T11:42:31.808Z,9.10
2019-04-07T11:45:28.916Z,7.03
2019-04-07T11:48:18.502Z,6.27
2019-04-07T11:51:02.027Z,6.27
2019-04-07T11:53:51.284Z,6.60
2019-04-07T11:56:44.542Z,7.10
2019-04-07T11:59:43.686Z,6.87
2019-04-07T12:02:27.331Z,5.93
2019-04-07T12:05:17.463Z,5.80
2019-04-07T12:08:28.188Z,5.90
2019-04-07T12:11:18.722Z,5.50
2019-04-07T12:14:09.022Z,5.47
2019-04-07T12:16:51.356Z,5.87
2019-04-07T12:19:44.933Z,6.07
2019-04-07T12:22:33.792Z,5.33
2019-04-07T12:25:21.138Z,5.93
2019-04-07T12:28:19.450Z,5.60
2019-04-07T12:31:08.650Z,5.07
2019-04-07T12:34:14.105Z,5.53
2019-04-07T12:37:06.498Z,5.93
2019-04-07T12:39:49.768Z,6.10
2019-04-07T12:42:47.144Z,5.53
2019-04-07T12:45:47.104Z,5.57
2019-04-07T12:48:34.952Z,5.20
2019-04-07T12:51:22.320Z,4.73
2019-04-07T12:54:20.718Z,4.77
2019-04-07T12:57:02.491Z,4.83
2019-04-07T12:59:52.925Z,4.90
2019-04-07T13:03:02.757Z,4.27
2019-04-07T13:05:42.796Z,4.30
2019-04-07T13:08:39.289Z,4.40
2019-04-07T13:11:36.290Z,4.47
2019-04-07T13:14:27.669Z,5.33
2019-04-07T13:17:33.502Z,4.57
2019-04-07T13:20:23.372Z,4.47
2019-04-07T13:23:20.065Z,5.20
2019-04-07T13:26:18.737Z,4.23
2019-04-07T13:32:39.346Z,4.43
2019-04-07T13:35:16.269Z,5.10
2019-04-07T13:38:32.870Z,5.70
2019-04-07T13:41:24.435Z,4.70
2019-04-07T13:44:20.341Z,5.13
2019-04-07T13:47:13.335Z,6.20
2019-04-07T13:50:22.447Z,5.83
2019-04-07T13:53:15.101Z,4.97
2019-04-07T13:56:03.533Z,5.53
2019-04-07T13:59:05.970Z,5.60
2019-04-07T14:01:56.981Z,5.30
2019-04-07T14:04:40.648Z,5.73
2019-04-07T14:07:25.222Z,5.77
2019-04-07T14:10:18.086Z,5.10
2019-04-07T14:13:06.249Z,5.97
2019-04-07T14:16:04.922Z,6.00
2019-04-07T14:18:58.133Z,6.17
2019-04-07T14:21:49.301Z,5.77
2019-04-07T14:24:38.306Z,5.87
2019-04-07T14:27:14.319Z,5.37
2019-04-07T14:30:19.183Z,4.83
2019-04-07T14:33:13.073Z,5.70
2019-04-07T14:36:01.293Z,5.77
2019-04-07T14:39:02.017Z,6.03
2019-04-07T14:42:04.000Z,5.80
2019-04-07T14:44:36.995Z,5.73
2019-04-07T14:47:19.832Z,6.53
2019-04-07T14:50:21.149Z,6.77
2019-04-07T14:53:20.026Z,6.00
2019-04-07T14:56:08.663Z,6.10
2019-04-07T14:59:04.414Z,5.87
2019-04-07T15:02:11.734Z,6.53
2019-04-07T15:04:53.136Z,5.43
2019-04-07T15:07:48.410Z,5.70
2019-04-07T15:10:32.952Z,5.63
2019-04-07T15:13:50.828Z,5.80
2019-04-07T15:16:26.318Z,5.57
2019-04-07T15:18:58.650Z,5.57
2019-04-07T15:21:53.018Z,6.20
2019-04-07T15:24:22.663Z,6.40
2019-04-07T15:26:54.117Z,5.83
2019-04-07T15:29:29.948Z,6.10
2019-04-07T15:32:01.790Z,5.73
2019-04-07T15:34:33.170Z,6.63
2019-04-07T15:37:19.359Z,6.07
2019-04-07T15:39:49.456Z,5.30
2019-04-07T15:42:33.066Z,5.77
2019-04-07T15:44:57.300Z,5.37
2019-04-07T15:47:43.025Z,5.27
2019-04-07T15:51:19.787Z,4.77
2019-04-07T15:54:01.270Z,5.67
2019-04-07T15:56:36.857Z,6.43
2019-04-07T15:59:20.671Z,6.07
2019-04-07T16:01:54.963Z,6.30
2019-04-07T16:04:29.287Z,5.63
2019-04-07T16:07:02.075Z,6.60
2019-04-07T16:09:40.969Z,5.97
2019-04-07T16:12:06.547Z,6.10
2019-04-07T16:14:38.510Z,6.20
2019-04-07T16:17:12.899Z,6.30
2019-04-07T16:19:51.014Z,5.60
2019-04-07T16:22:24.553Z,6.03
2019-04-07T16:24:57.047Z,6.27
2019-04-07T16:27:29.380Z,6.67
2019-04-07T16:30:03.002Z,6.00
2019-04-07T16:32:34.194Z,6.93
2019-04-07T16:35:06.827Z,6.90
2019-04-07T16:37:44.074Z,6.07
2019-04-07T16:40:22.124Z,6.60
2019-04-07T16:43:04.604Z,6.70
2019-04-07T16:45:27.188Z,7.30
2019-04-07T16:47:58.827Z,6.40
2019-04-07T16:50:30.406Z,7.30
2019-04-07T16:53:06.860Z,7.53
2019-04-07T16:55:50.574Z,7.43
2019-04-07T16:58:27.550Z,7.70
2019-04-07T17:00:59.042Z,7.57
2019-04-07T17:07:02.347Z,7.73
2019-04-07T17:09:29.330Z,7.70
2019-04-07T17:12:03.528Z,8.63
2019-04-07T17:14:36.078Z,7.63
2019-04-07T17:17:10.007Z,7.97
2019-04-07T17:19:44.328Z,7.47
2019-04-07T17:26:36.007Z,7.00
2019-04-07T17:35:35.850Z,7.30
2019-04-07T17:41:18.508Z,6.60
2019-04-07T17:44:08.321Z,7.50
2019-04-07T17:50:12.703Z,9.50
2019-04-07T17:53:38.145Z,8.40
2019-04-07T17:56:33.677Z,7.77
2019-04-07T18:00:19.241Z,7.73
2019-04-07T18:23:13.274Z,8.33
2019-04-07T18:26:14.418Z,8.27
2019-04-07T18:33:55.112Z,8.73
2019-04-07T18:37:56.459Z,8.30
2019-04-07T18:44:50.940Z,8.57
2019-04-07T18:48:03.412Z,9.00
2019-04-07T18:51:27.340Z,9.60
2019-04-07T18:58:15.414Z,9.53
2019-04-07T19:01:16.970Z,10.63
2019-04-07T19:04:18.266Z,11.07
2019-04-07T19:07:00.550Z,10.53
2019-04-07T19:12:24.791Z,11.60
2019-04-07T19:15:12.080Z,11.57
2019-04-07T19:18:05.811Z,10.77
2019-04-07T19:24:31.436Z,11.37
2019-04-07T19:27:21.229Z,11.97
2019-04-07T19:30:26.913Z,10.57
2019-04-07T19:33:19.167Z,11.20
2019-04-07T19:36:02.830Z,11.37
2019-04-07T19:38:41.285Z,9.97
2019-04-07T19:41:24.369Z,10.77
2019-04-07T19:44:36.598Z,10.63
2019-04-07T19:47:36.424Z,11.33
2019-04-07T19:50:52.891Z,11.07
2019-04-07T19:53:44.662Z,10.17
2019-04-07T19:56:25.212Z,11.03
2019-04-07T20:05:54.867Z,9.80
2019-04-07T20:08:43.721Z,9.63
2019-04-07T20:11:40.014Z,9.57
2019-04-07T20:15:17.912Z,9.90
2019-04-07T20:18:18.889Z,9.50
2019-04-07T20:21:18.549Z,9.70
2019-04-07T20:24:08.786Z,10.70
2019-04-07T20:30:23.336Z,9.43
2019-04-07T20:33:32.946Z,8.97
2019-04-07T20:36:24.229Z,9.83
2019-04-07T20:42:40.232Z,9.40
2019-04-07T21:05:10.203Z,8.77
2019-04-07T21:15:45.252Z,11.63
2019-04-07T21:45:13.395Z,16.33
2019-04-07T21:48:03.290Z,14.57
2019-04-07T21:51:00.614Z,17.43
2019-04-07T21:53:50.616Z,17.30
2019-04-07T21:56:44.218Z,18.43
2019-04-07T21:59:48.525Z,18.50
2019-04-07T22:02:43.195Z,18.90
2019-04-07T22:08:46.665Z,18.67
2019-04-07T22:11:26.694Z,17.53
2019-04-07T22:16:31.469Z,17.57
2019-04-07T22:19:46.586Z,13.90
2019-04-07T22:22:18.499Z,14.73
2019-04-07T22:24:54.025Z,11.07
2019-04-07T22:31:36.968Z,12.37
2019-04-07T22:34:14.739Z,12.00
2019-04-07T22:36:51.798Z,11.30
2019-04-07T22:39:28.899Z,12.50
2019-04-07T22:42:15.218Z,11.50
